Clearlake Oaks, California
Current Conditions -  °F | °C
As of 9:16 AM on Friday 31 Oct 2014 (Local Time) from KUKI Reporting Station
Moderate Rain Moderate Rain  
Wind Chill: 55°   Ceiling: 7000
Heat Index: 55°   Visibility: 3mi
Dew Point: 52°   Wind: 0mph
Humidity: 89%   Direction: NA
Pressure: 29.87"   Gusts: NA
Location:  39.02°N, 122.68°W
Report Text: KUKI 311616Z AUTO 00000KT 3SM RA BR BKN070 OVC090 13/11 A2987 RMK AO2 P0005 T01280111
Loading
Personal Weather Stations






























Interactive Weather Map
Tropical Storm Tracking
New forecast layout! Learn more

10-Day Weather Forecast

Advertisements
Track Severe Weather on mobile